sensor_id;sensor_type;location;lat;lon;timestamp;P1;durP1;ratioP1;P2;durP2;ratioP2
37349;SDS011;23231;52.358;4.926;2023-05-07T00:00:48;67.15;;;37.05;;
37349;SDS011;23231;52.358;4.926;2023-05-07T00:05:49;52.55;;;32.63;;
37349;SDS011;23231;52.358;4.926;2023-05-07T00:10:50;54.00;;;33.60;;
37349;SDS011;23231;52.358;4.926;2023-05-07T00:15:50;72.30;;;39.47;;
37349;SDS011;23231;52.358;4.926;2023-05-07T00:20:50;86.78;;;42.88;;
37349;SDS011;23231;52.358;4.926;2023-05-07T00:25:51;96.18;;;46.40;;
37349;SDS011;23231;52.358;4.926;2023-05-07T00:30:52;78.18;;;41.08;;
37349;SDS011;23231;52.358;4.926;2023-05-07T00:35:52;82.65;;;43.85;;
37349;SDS011;23231;52.358;4.926;2023-05-07T00:40:54;68.80;;;38.95;;
37349;SDS011;23231;52.358;4.926;2023-05-07T00:45:54;67.38;;;38.50;;
37349;SDS011;23231;52.358;4.926;2023-05-07T00:50:55;92.45;;;42.00;;
37349;SDS011;23231;52.358;4.926;2023-05-07T00:55:56;80.97;;;42.60;;
37349;SDS011;23231;52.358;4.926;2023-05-07T01:00:57;70.68;;;40.08;;
37349;SDS011;23231;52.358;4.926;2023-05-07T01:05:58;60.65;;;35.47;;
37349;SDS011;23231;52.358;4.926;2023-05-07T01:10:58;70.13;;;37.53;;
37349;SDS011;23231;52.358;4.926;2023-05-07T01:15:59;65.22;;;37.35;;
37349;SDS011;23231;52.358;4.926;2023-05-07T01:21:00;60.45;;;35.40;;
37349;SDS011;23231;52.358;4.926;2023-05-07T01:26:02;55.40;;;33.30;;
37349;SDS011;23231;52.358;4.926;2023-05-07T01:31:02;51.50;;;32.47;;
37349;SDS011;23231;52.358;4.926;2023-05-07T01:36:04;61.67;;;35.85;;
37349;SDS011;23231;52.358;4.926;2023-05-07T01:41:06;57.10;;;34.80;;
37349;SDS011;23231;52.358;4.926;2023-05-07T01:46:07;64.07;;;35.33;;
37349;SDS011;23231;52.358;4.926;2023-05-07T01:51:10;57.13;;;34.20;;
37349;SDS011;23231;52.358;4.926;2023-05-07T01:56:10;47.10;;;29.52;;
37349;SDS011;23231;52.358;4.926;2023-05-07T02:01:10;45.17;;;29.05;;
37349;SDS011;23231;52.358;4.926;2023-05-07T02:06:11;39.65;;;26.00;;
37349;SDS011;23231;52.358;4.926;2023-05-07T02:11:11;36.83;;;25.67;;
37349;SDS011;23231;52.358;4.926;2023-05-07T02:16:11;34.25;;;22.42;;
37349;SDS011;23231;52.358;4.926;2023-05-07T02:21:14;30.13;;;21.23;;
37349;SDS011;23231;52.358;4.926;2023-05-07T02:26:14;30.52;;;21.40;;
37349;SDS011;23231;52.358;4.926;2023-05-07T02:31:15;34.45;;;22.58;;
37349;SDS011;23231;52.358;4.926;2023-05-07T02:36:15;30.75;;;21.02;;
37349;SDS011;23231;52.358;4.926;2023-05-07T02:41:15;30.25;;;20.95;;
37349;SDS011;23231;52.358;4.926;2023-05-07T02:46:16;27.30;;;19.15;;
37349;SDS011;23231;52.358;4.926;2023-05-07T02:51:19;26.63;;;20.05;;
37349;SDS011;23231;52.358;4.926;2023-05-07T02:56:20;27.98;;;19.77;;
37349;SDS011;23231;52.358;4.926;2023-05-07T03:01:21;28.63;;;19.23;;
37349;SDS011;23231;52.358;4.926;2023-05-07T03:06:21;26.65;;;18.58;;
37349;SDS011;23231;52.358;4.926;2023-05-07T03:11:22;21.13;;;15.20;;
37349;SDS011;23231;52.358;4.926;2023-05-07T03:16:22;20.10;;;15.50;;
37349;SDS011;23231;52.358;4.926;2023-05-07T03:21:22;21.02;;;14.52;;
37349;SDS011;23231;52.358;4.926;2023-05-07T03:26:23;17.60;;;13.43;;
37349;SDS011;23231;52.358;4.926;2023-05-07T03:31:23;22.23;;;14.55;;
37349;SDS011;23231;52.358;4.926;2023-05-07T03:36:23;16.40;;;12.23;;
37349;SDS011;23231;52.358;4.926;2023-05-07T03:41:25;17.30;;;12.90;;
37349;SDS011;23231;52.358;4.926;2023-05-07T03:46:25;17.85;;;12.82;;
37349;SDS011;23231;52.358;4.926;2023-05-07T03:51:28;14.82;;;12.00;;
37349;SDS011;23231;52.358;4.926;2023-05-07T03:56:28;18.27;;;12.57;;
37349;SDS011;23231;52.358;4.926;2023-05-07T04:01:29;18.90;;;13.50;;
37349;SDS011;23231;52.358;4.926;2023-05-07T04:06:30;15.40;;;12.05;;
37349;SDS011;23231;52.358;4.926;2023-05-07T04:11:30;17.40;;;12.75;;
37349;SDS011;23231;52.358;4.926;2023-05-07T04:16:31;16.45;;;12.13;;
37349;SDS011;23231;52.358;4.926;2023-05-07T04:21:31;16.02;;;12.10;;
37349;SDS011;23231;52.358;4.926;2023-05-07T04:26:32;16.33;;;11.73;;
37349;SDS011;23231;52.358;4.926;2023-05-07T04:31:32;18.40;;;12.77;;
37349;SDS011;23231;52.358;4.926;2023-05-07T04:36:33;20.98;;;14.45;;
37349;SDS011;23231;52.358;4.926;2023-05-07T04:41:35;19.50;;;13.23;;
37349;SDS011;23231;52.358;4.926;2023-05-07T04:46:36;19.80;;;14.07;;
37349;SDS011;23231;52.358;4.926;2023-05-07T04:51:36;19.17;;;13.73;;
37349;SDS011;23231;52.358;4.926;2023-05-07T04:56:38;21.02;;;14.88;;
37349;SDS011;23231;52.358;4.926;2023-05-07T05:01:38;22.00;;;15.00;;
37349;SDS011;23231;52.358;4.926;2023-05-07T05:06:39;22.25;;;16.52;;
37349;SDS011;23231;52.358;4.926;2023-05-07T05:11:39;21.90;;;16.38;;
37349;SDS011;23231;52.358;4.926;2023-05-07T05:16:40;24.90;;;17.45;;
37349;SDS011;23231;52.358;4.926;2023-05-07T05:21:40;28.08;;;20.92;;
37349;SDS011;23231;52.358;4.926;2023-05-07T05:26:41;26.33;;;19.58;;
37349;SDS011;23231;52.358;4.926;2023-05-07T05:31:41;26.63;;;20.58;;
37349;SDS011;23231;52.358;4.926;2023-05-07T05:36:41;25.27;;;19.45;;
37349;SDS011;23231;52.358;4.926;2023-05-07T05:41:42;24.83;;;19.02;;
37349;SDS011;23231;52.358;4.926;2023-05-07T05:46:42;23.85;;;18.10;;
37349;SDS011;23231;52.358;4.926;2023-05-07T05:51:43;21.23;;;17.45;;
37349;SDS011;23231;52.358;4.926;2023-05-07T05:56:43;20.85;;;17.92;;
37349;SDS011;23231;52.358;4.926;2023-05-07T06:01:44;17.63;;;15.07;;
37349;SDS011;23231;52.358;4.926;2023-05-07T06:06:44;19.42;;;15.93;;
37349;SDS011;23231;52.358;4.926;2023-05-07T06:11:44;20.08;;;16.40;;
37349;SDS011;23231;52.358;4.926;2023-05-07T06:16:45;20.40;;;15.05;;
37349;SDS011;23231;52.358;4.926;2023-05-07T06:21:45;18.58;;;14.38;;
37349;SDS011;23231;52.358;4.926;2023-05-07T06:26:46;20.95;;;15.50;;
37349;SDS011;23231;52.358;4.926;2023-05-07T06:31:46;20.63;;;14.52;;
37349;SDS011;23231;52.358;4.926;2023-05-07T06:36:47;16.05;;;13.15;;
37349;SDS011;23231;52.358;4.926;2023-05-07T06:41:47;18.75;;;14.68;;
37349;SDS011;23231;52.358;4.926;2023-05-07T06:46:48;16.05;;;13.82;;
37349;SDS011;23231;52.358;4.926;2023-05-07T06:51:48;16.25;;;13.40;;
37349;SDS011;23231;52.358;4.926;2023-05-07T06:56:49;17.48;;;14.30;;
37349;SDS011;23231;52.358;4.926;2023-05-07T07:01:49;22.45;;;15.50;;
37349;SDS011;23231;52.358;4.926;2023-05-07T07:06:51;20.77;;;17.02;;
37349;SDS011;23231;52.358;4.926;2023-05-07T07:11:52;21.13;;;16.85;;
37349;SDS011;23231;52.358;4.926;2023-05-07T07:16:52;21.60;;;18.48;;
37349;SDS011;23231;52.358;4.926;2023-05-07T07:21:53;21.98;;;16.98;;
37349;SDS011;23231;52.358;4.926;2023-05-07T07:26:53;21.70;;;17.33;;
37349;SDS011;23231;52.358;4.926;2023-05-07T07:31:55;24.25;;;18.02;;
37349;SDS011;23231;52.358;4.926;2023-05-07T07:36:56;21.65;;;17.38;;
37349;SDS011;23231;52.358;4.926;2023-05-07T07:41:56;24.42;;;18.05;;
37349;SDS011;23231;52.358;4.926;2023-05-07T07:46:57;20.73;;;16.00;;
37349;SDS011;23231;52.358;4.926;2023-05-07T07:51:57;19.98;;;16.75;;
37349;SDS011;23231;52.358;4.926;2023-05-07T07:56:59;19.90;;;16.15;;
37349;SDS011;23231;52.358;4.926;2023-05-07T08:01:59;19.25;;;13.77;;
37349;SDS011;23231;52.358;4.926;2023-05-07T08:07:00;18.98;;;15.15;;
37349;SDS011;23231;52.358;4.926;2023-05-07T08:12:00;16.90;;;13.80;;
37349;SDS011;23231;52.358;4.926;2023-05-07T08:17:01;20.50;;;15.65;;
37349;SDS011;23231;52.358;4.926;2023-05-07T08:22:02;20.10;;;15.25;;
37349;SDS011;23231;52.358;4.926;2023-05-07T08:27:04;21.08;;;16.92;;
37349;SDS011;23231;52.358;4.926;2023-05-07T08:32:04;20.52;;;17.42;;
37349;SDS011;23231;52.358;4.926;2023-05-07T08:37:05;21.30;;;16.52;;
37349;SDS011;23231;52.358;4.926;2023-05-07T08:42:05;21.05;;;16.35;;
37349;SDS011;23231;52.358;4.926;2023-05-07T08:47:07;17.85;;;13.82;;
37349;SDS011;23231;52.358;4.926;2023-05-07T08:52:07;18.85;;;15.32;;
37349;SDS011;23231;52.358;4.926;2023-05-07T08:57:08;19.52;;;15.23;;
37349;SDS011;23231;52.358;4.926;2023-05-07T09:02:08;15.68;;;13.65;;
37349;SDS011;23231;52.358;4.926;2023-05-07T09:07:10;14.18;;;11.70;;
37349;SDS011;23231;52.358;4.926;2023-05-07T09:12:10;9.68;;;8.23;;
37349;SDS011;23231;52.358;4.926;2023-05-07T09:17:11;10.95;;;7.28;;
37349;SDS011;23231;52.358;4.926;2023-05-07T09:22:11;11.45;;;8.80;;
37349;SDS011;23231;52.358;4.926;2023-05-07T09:27:12;10.60;;;7.72;;
37349;SDS011;23231;52.358;4.926;2023-05-07T09:32:13;10.30;;;7.65;;
37349;SDS011;23231;52.358;4.926;2023-05-07T09:37:15;12.52;;;9.82;;
37349;SDS011;23231;52.358;4.926;2023-05-07T09:42:15;11.82;;;9.70;;
37349;SDS011;23231;52.358;4.926;2023-05-07T09:47:19;12.82;;;9.73;;
37349;SDS011;23231;52.358;4.926;2023-05-07T09:52:20;12.63;;;10.35;;
37349;SDS011;23231;52.358;4.926;2023-05-07T09:57:20;14.45;;;10.70;;
37349;SDS011;23231;52.358;4.926;2023-05-07T10:02:21;12.25;;;8.05;;
37349;SDS011;23231;52.358;4.926;2023-05-07T10:07:24;9.15;;;7.18;;
37349;SDS011;23231;52.358;4.926;2023-05-07T10:12:25;8.15;;;6.50;;
37349;SDS011;23231;52.358;4.926;2023-05-07T10:17:26;9.50;;;7.82;;
37349;SDS011;23231;52.358;4.926;2023-05-07T10:22:26;9.88;;;7.00;;
37349;SDS011;23231;52.358;4.926;2023-05-07T10:27:27;16.13;;;8.38;;
37349;SDS011;23231;52.358;4.926;2023-05-07T10:37:40;13.18;;;7.85;;
37349;SDS011;23231;52.358;4.926;2023-05-07T10:43:00;11.57;;;9.27;;
37349;SDS011;23231;52.358;4.926;2023-05-07T10:48:14;11.85;;;9.02;;
37349;SDS011;23231;52.358;4.926;2023-05-07T10:58:25;10.32;;;7.30;;
37349;SDS011;23231;52.358;4.926;2023-05-07T11:03:27;8.70;;;5.95;;
37349;SDS011;23231;52.358;4.926;2023-05-07T11:08:41;13.07;;;11.55;;
37349;SDS011;23231;52.358;4.926;2023-05-07T11:13:57;12.85;;;11.38;;
37349;SDS011;23231;52.358;4.926;2023-05-07T11:18:57;14.48;;;12.88;;
37349;SDS011;23231;52.358;4.926;2023-05-07T11:23:58;15.15;;;13.35;;
37349;SDS011;23231;52.358;4.926;2023-05-07T11:28:59;15.98;;;11.73;;
37349;SDS011;23231;52.358;4.926;2023-05-07T11:34:00;16.02;;;12.93;;
37349;SDS011;23231;52.358;4.926;2023-05-07T11:39:01;11.10;;;9.77;;
37349;SDS011;23231;52.358;4.926;2023-05-07T11:44:01;14.88;;;12.77;;
37349;SDS011;23231;52.358;4.926;2023-05-07T11:49:01;16.10;;;13.57;;
37349;SDS011;23231;52.358;4.926;2023-05-07T11:54:05;16.08;;;13.15;;
37349;SDS011;23231;52.358;4.926;2023-05-07T11:59:08;16.98;;;12.02;;
37349;SDS011;23231;52.358;4.926;2023-05-07T12:04:09;16.90;;;12.48;;
37349;SDS011;23231;52.358;4.926;2023-05-07T12:09:09;16.65;;;13.50;;
37349;SDS011;23231;52.358;4.926;2023-05-07T12:14:11;15.23;;;12.50;;
37349;SDS011;23231;52.358;4.926;2023-05-07T12:19:11;14.77;;;11.18;;
37349;SDS011;23231;52.358;4.926;2023-05-07T12:24:16;15.02;;;11.63;;
37349;SDS011;23231;52.358;4.926;2023-05-07T12:29:16;14.45;;;10.45;;
37349;SDS011;23231;52.358;4.926;2023-05-07T12:34:17;12.48;;;9.55;;
37349;SDS011;23231;52.358;4.926;2023-05-07T12:39:18;12.40;;;8.07;;
37349;SDS011;23231;52.358;4.926;2023-05-07T12:44:18;10.00;;;7.50;;
37349;SDS011;23231;52.358;4.926;2023-05-07T12:49:19;10.95;;;7.72;;
37349;SDS011;23231;52.358;4.926;2023-05-07T12:54:29;10.70;;;7.88;;
37349;SDS011;23231;52.358;4.926;2023-05-07T12:59:40;14.07;;;10.30;;
37349;SDS011;23231;52.358;4.926;2023-05-07T13:04:41;12.23;;;9.32;;
37349;SDS011;23231;52.358;4.926;2023-05-07T13:09:41;14.98;;;9.25;;
37349;SDS011;23231;52.358;4.926;2023-05-07T13:14:42;9.55;;;7.68;;
37349;SDS011;23231;52.358;4.926;2023-05-07T13:19:43;13.32;;;8.98;;
37349;SDS011;23231;52.358;4.926;2023-05-07T13:24:44;9.88;;;6.95;;
37349;SDS011;23231;52.358;4.926;2023-05-07T13:29:44;10.55;;;8.23;;
37349;SDS011;23231;52.358;4.926;2023-05-07T13:34:45;11.77;;;8.35;;
37349;SDS011;23231;52.358;4.926;2023-05-07T13:39:45;14.45;;;9.82;;
37349;SDS011;23231;52.358;4.926;2023-05-07T13:44:45;14.57;;;8.45;;
37349;SDS011;23231;52.358;4.926;2023-05-07T13:49:46;12.98;;;8.73;;
37349;SDS011;23231;52.358;4.926;2023-05-07T13:54:49;11.70;;;8.30;;
37349;SDS011;23231;52.358;4.926;2023-05-07T13:59:52;14.90;;;9.60;;
37349;SDS011;23231;52.358;4.926;2023-05-07T14:04:52;19.05;;;13.65;;
37349;SDS011;23231;52.358;4.926;2023-05-07T14:09:52;23.52;;;15.93;;
37349;SDS011;23231;52.358;4.926;2023-05-07T14:14:53;22.48;;;15.35;;
37349;SDS011;23231;52.358;4.926;2023-05-07T14:19:54;22.40;;;15.55;;
37349;SDS011;23231;52.358;4.926;2023-05-07T14:24:54;20.88;;;14.00;;
37349;SDS011;23231;52.358;4.926;2023-05-07T14:29:55;21.30;;;13.90;;
37349;SDS011;23231;52.358;4.926;2023-05-07T14:34:55;23.13;;;14.82;;
37349;SDS011;23231;52.358;4.926;2023-05-07T14:39:56;20.48;;;11.50;;
37349;SDS011;23231;52.358;4.926;2023-05-07T14:44:56;15.20;;;9.10;;
37349;SDS011;23231;52.358;4.926;2023-05-07T14:49:56;15.02;;;8.82;;
37349;SDS011;23231;52.358;4.926;2023-05-07T14:54:58;14.82;;;10.65;;
37349;SDS011;23231;52.358;4.926;2023-05-07T14:59:58;18.35;;;11.15;;
37349;SDS011;23231;52.358;4.926;2023-05-07T15:04:59;16.92;;;11.02;;
37349;SDS011;23231;52.358;4.926;2023-05-07T15:09:59;17.95;;;11.73;;
37349;SDS011;23231;52.358;4.926;2023-05-07T15:15:00;9.45;;;6.30;;
37349;SDS011;23231;52.358;4.926;2023-05-07T15:20:00;10.57;;;6.22;;
37349;SDS011;23231;52.358;4.926;2023-05-07T15:25:01;9.00;;;4.40;;
37349;SDS011;23231;52.358;4.926;2023-05-07T15:30:01;5.25;;;3.50;;
37349;SDS011;23231;52.358;4.926;2023-05-07T15:35:02;6.53;;;3.40;;
37349;SDS011;23231;52.358;4.926;2023-05-07T15:40:03;7.45;;;3.22;;
37349;SDS011;23231;52.358;4.926;2023-05-07T15:45:06;5.93;;;3.70;;
37349;SDS011;23231;52.358;4.926;2023-05-07T15:50:08;7.13;;;3.10;;
37349;SDS011;23231;52.358;4.926;2023-05-07T15:55:08;7.68;;;3.00;;
37349;SDS011;23231;52.358;4.926;2023-05-07T16:00:09;3.92;;;1.88;;
37349;SDS011;23231;52.358;4.926;2023-05-07T16:05:11;5.97;;;3.15;;
37349;SDS011;23231;52.358;4.926;2023-05-07T16:10:12;3.75;;;1.77;;
37349;SDS011;23231;52.358;4.926;2023-05-07T16:15:12;2.72;;;1.30;;
37349;SDS011;23231;52.358;4.926;2023-05-07T16:20:13;3.92;;;1.77;;
37349;SDS011;23231;52.358;4.926;2023-05-07T16:25:15;5.93;;;3.55;;
37349;SDS011;23231;52.358;4.926;2023-05-07T16:30:16;3.35;;;1.30;;
37349;SDS011;23231;52.358;4.926;2023-05-07T16:35:16;8.63;;;4.30;;
37349;SDS011;23231;52.358;4.926;2023-05-07T16:40:23;8.15;;;3.97;;
37349;SDS011;23231;52.358;4.926;2023-05-07T16:45:23;8.90;;;3.80;;
37349;SDS011;23231;52.358;4.926;2023-05-07T16:50:24;5.63;;;2.63;;
37349;SDS011;23231;52.358;4.926;2023-05-07T16:55:24;5.50;;;2.83;;
37349;SDS011;23231;52.358;4.926;2023-05-07T17:00:24;7.40;;;3.95;;
37349;SDS011;23231;52.358;4.926;2023-05-07T17:05:25;6.60;;;3.08;;
37349;SDS011;23231;52.358;4.926;2023-05-07T17:10:26;6.93;;;3.55;;
37349;SDS011;23231;52.358;4.926;2023-05-07T17:15:27;9.13;;;4.53;;
37349;SDS011;23231;52.358;4.926;2023-05-07T17:20:27;8.10;;;4.05;;
37349;SDS011;23231;52.358;4.926;2023-05-07T17:25:28;6.05;;;3.47;;
37349;SDS011;23231;52.358;4.926;2023-05-07T17:30:32;5.03;;;2.58;;
37349;SDS011;23231;52.358;4.926;2023-05-07T17:35:32;5.25;;;3.05;;
37349;SDS011;23231;52.358;4.926;2023-05-07T17:40:33;9.25;;;5.88;;
37349;SDS011;23231;52.358;4.926;2023-05-07T17:45:33;8.52;;;5.20;;
37349;SDS011;23231;52.358;4.926;2023-05-07T17:50:33;7.32;;;4.40;;
37349;SDS011;23231;52.358;4.926;2023-05-07T17:55:34;7.32;;;4.03;;
37349;SDS011;23231;52.358;4.926;2023-05-07T18:00:39;8.55;;;4.43;;
37349;SDS011;23231;52.358;4.926;2023-05-07T18:05:40;6.68;;;3.65;;
37349;SDS011;23231;52.358;4.926;2023-05-07T18:10:40;5.72;;;3.63;;
37349;SDS011;23231;52.358;4.926;2023-05-07T18:15:40;6.72;;;3.67;;
37349;SDS011;23231;52.358;4.926;2023-05-07T18:20:41;5.47;;;3.65;;
37349;SDS011;23231;52.358;4.926;2023-05-07T18:25:41;6.80;;;3.53;;
37349;SDS011;23231;52.358;4.926;2023-05-07T18:30:42;4.63;;;3.03;;
37349;SDS011;23231;52.358;4.926;2023-05-07T18:35:42;7.85;;;3.60;;
37349;SDS011;23231;52.358;4.926;2023-05-07T18:40:42;7.53;;;3.95;;
37349;SDS011;23231;52.358;4.926;2023-05-07T18:45:46;6.22;;;3.50;;
37349;SDS011;23231;52.358;4.926;2023-05-07T18:50:47;7.85;;;3.72;;
37349;SDS011;23231;52.358;4.926;2023-05-07T18:55:51;6.53;;;4.18;;
37349;SDS011;23231;52.358;4.926;2023-05-07T19:00:52;6.22;;;4.78;;
37349;SDS011;23231;52.358;4.926;2023-05-07T19:05:52;6.97;;;3.97;;
37349;SDS011;23231;52.358;4.926;2023-05-07T19:10:56;7.13;;;3.97;;
37349;SDS011;23231;52.358;4.926;2023-05-07T19:15:57;5.68;;;3.75;;
37349;SDS011;23231;52.358;4.926;2023-05-07T19:20:57;7.35;;;4.80;;
37349;SDS011;23231;52.358;4.926;2023-05-07T19:25:58;7.65;;;4.43;;
37349;SDS011;23231;52.358;4.926;2023-05-07T19:30:59;6.55;;;4.03;;
37349;SDS011;23231;52.358;4.926;2023-05-07T19:35:59;6.38;;;4.10;;
37349;SDS011;23231;52.358;4.926;2023-05-07T19:41:00;7.85;;;4.22;;
37349;SDS011;23231;52.358;4.926;2023-05-07T19:46:01;6.40;;;4.60;;
37349;SDS011;23231;52.358;4.926;2023-05-07T19:51:01;6.13;;;4.07;;
37349;SDS011;23231;52.358;4.926;2023-05-07T20:01:12;9.98;;;5.93;;
37349;SDS011;23231;52.358;4.926;2023-05-07T20:06:12;6.07;;;4.68;;
37349;SDS011;23231;52.358;4.926;2023-05-07T20:11:13;7.32;;;5.70;;
37349;SDS011;23231;52.358;4.926;2023-05-07T20:16:13;10.60;;;6.45;;
37349;SDS011;23231;52.358;4.926;2023-05-07T20:21:14;12.35;;;7.10;;
37349;SDS011;23231;52.358;4.926;2023-05-07T20:26:15;8.35;;;6.63;;
37349;SDS011;23231;52.358;4.926;2023-05-07T20:31:15;9.13;;;6.93;;
37349;SDS011;23231;52.358;4.926;2023-05-07T20:36:16;11.90;;;8.98;;
37349;SDS011;23231;52.358;4.926;2023-05-07T20:41:16;12.73;;;9.70;;
37349;SDS011;23231;52.358;4.926;2023-05-07T20:46:17;10.77;;;8.88;;
37349;SDS011;23231;52.358;4.926;2023-05-07T20:51:21;13.50;;;10.35;;
37349;SDS011;23231;52.358;4.926;2023-05-07T20:56:21;14.85;;;10.50;;
37349;SDS011;23231;52.358;4.926;2023-05-07T21:01:22;12.30;;;10.25;;
37349;SDS011;23231;52.358;4.926;2023-05-07T21:06:22;13.38;;;9.27;;
37349;SDS011;23231;52.358;4.926;2023-05-07T21:11:22;11.57;;;8.50;;
37349;SDS011;23231;52.358;4.926;2023-05-07T21:16:23;13.20;;;11.30;;
37349;SDS011;23231;52.358;4.926;2023-05-07T21:21:24;12.30;;;9.88;;
37349;SDS011;23231;52.358;4.926;2023-05-07T21:26:24;13.45;;;9.52;;
37349;SDS011;23231;52.358;4.926;2023-05-07T21:31:25;15.38;;;10.55;;
37349;SDS011;23231;52.358;4.926;2023-05-07T21:36:25;15.18;;;10.60;;
37349;SDS011;23231;52.358;4.926;2023-05-07T21:41:27;13.25;;;10.70;;
37349;SDS011;23231;52.358;4.926;2023-05-07T21:46:27;12.40;;;10.85;;
37349;SDS011;23231;52.358;4.926;2023-05-07T21:51:28;13.25;;;10.30;;
37349;SDS011;23231;52.358;4.926;2023-05-07T21:56:28;13.15;;;10.48;;
37349;SDS011;23231;52.358;4.926;2023-05-07T22:01:29;15.52;;;10.88;;
37349;SDS011;23231;52.358;4.926;2023-05-07T22:06:29;14.20;;;10.70;;
37349;SDS011;23231;52.358;4.926;2023-05-07T22:11:30;13.88;;;10.77;;
37349;SDS011;23231;52.358;4.926;2023-05-07T22:16:30;13.07;;;9.68;;
37349;SDS011;23231;52.358;4.926;2023-05-07T22:21:31;13.95;;;10.27;;
37349;SDS011;23231;52.358;4.926;2023-05-07T22:26:31;16.02;;;11.45;;
37349;SDS011;23231;52.358;4.926;2023-05-07T22:31:32;14.32;;;11.20;;
37349;SDS011;23231;52.358;4.926;2023-05-07T22:36:33;13.38;;;10.45;;
37349;SDS011;23231;52.358;4.926;2023-05-07T22:41:33;13.82;;;10.50;;
37349;SDS011;23231;52.358;4.926;2023-05-07T22:46:33;12.57;;;10.40;;
37349;SDS011;23231;52.358;4.926;2023-05-07T22:51:34;13.40;;;10.63;;
37349;SDS011;23231;52.358;4.926;2023-05-07T22:56:34;15.68;;;11.57;;
37349;SDS011;23231;52.358;4.926;2023-05-07T23:01:35;15.23;;;11.32;;
37349;SDS011;23231;52.358;4.926;2023-05-07T23:06:35;15.50;;;11.57;;
37349;SDS011;23231;52.358;4.926;2023-05-07T23:11:36;14.90;;;10.77;;
37349;SDS011;23231;52.358;4.926;2023-05-07T23:16:36;14.95;;;10.90;;
37349;SDS011;23231;52.358;4.926;2023-05-07T23:21:36;13.68;;;10.40;;
37349;SDS011;23231;52.358;4.926;2023-05-07T23:26:37;16.25;;;12.05;;
37349;SDS011;23231;52.358;4.926;2023-05-07T23:31:37;17.63;;;12.85;;
37349;SDS011;23231;52.358;4.926;2023-05-07T23:36:38;17.45;;;12.95;;
37349;SDS011;23231;52.358;4.926;2023-05-07T23:41:38;17.38;;;12.70;;
37349;SDS011;23231;52.358;4.926;2023-05-07T23:46:38;20.20;;;12.52;;
37349;SDS011;23231;52.358;4.926;2023-05-07T23:51:39;20.60;;;13.93;;
37349;SDS011;23231;52.358;4.926;2023-05-07T23:56:39;21.85;;;15.27;;
